Time;durP1;ratioP1;P1;durP2;ratioP2;P2;SDS_P1;SDS_P2;PMS_P1;PMS_P2;Temp;Humidity;BMP_temperature;BMP_pressure;BME280_temperature;BME280_humidity;BME280_pressure;Samples;Min_cycle;Max_cycle;Signal;HPM_P1;HPM_P2
2023/01/10 00:01:59;;;;;;;3.00;2.40;;;4.60;99.90;;;3.56;100.00;97025.75;5053795;28;20408;-76
2023/01/10 00:04:26;;;;;;;3.75;2.45;;;4.70;99.90;;;3.45;100.00;97032.50;5053549;28;20473;-76
2023/01/10 00:06:53;;;;;;;4.32;2.60;;;4.60;99.90;;;3.45;100.00;97035.91;5053599;28;20436;-76
2023/01/10 00:09:19;;;;;;;3.78;2.50;;;4.60;99.90;;;3.45;100.00;97035.13;5053626;28;20406;-76
2023/01/10 00:14:29;;;;;;;4.93;2.60;;;4.50;99.90;;;3.45;100.00;97035.91;5053366;28;20477;-76
2023/01/10 00:16:56;;;;;;;3.78;2.40;;;4.50;99.90;;;3.43;100.00;97037.94;5053835;28;20402;-76
2023/01/10 00:19:21;;;;;;;8.20;3.10;;;4.50;99.90;;;3.46;100.00;97045.34;5053589;28;20488;-76
2023/01/10 00:21:48;;;;;;;4.23;2.73;;;4.60;99.90;;;3.45;100.00;97045.59;5053414;28;20495;-76
2023/01/10 00:24:18;;;;;;;4.00;3.10;;;4.60;99.90;;;3.56;100.00;97046.69;5053287;28;20405;-76
2023/01/10 00:26:50;;;;;;;5.60;2.80;;;4.70;99.90;;;3.58;100.00;97050.69;5053157;28;20461;-76
2023/01/10 00:29:18;;;;;;;3.85;2.67;;;4.70;99.90;;;3.58;100.00;97055.94;5053292;28;20942;-76
2023/01/10 00:31:44;;;;;;;5.18;2.95;;;4.70;99.90;;;3.67;100.00;97062.50;5053247;28;20405;-75
2023/01/10 00:34:09;;;;;;;5.22;3.15;;;4.70;99.90;;;3.63;100.00;97069.16;5052974;28;20413;-76
2023/01/10 00:36:35;;;;;;;5.82;3.10;;;4.80;99.90;;;3.53;100.00;97065.44;5053180;28;20814;-76
2023/01/10 00:39:06;;;;;;;6.67;3.50;;;4.70;99.90;;;3.46;100.00;97066.28;5052896;28;20414;-76
2023/01/10 00:44:18;;;;;;;8.60;3.63;;;4.60;99.90;;;3.46;100.00;97076.75;5053119;28;20445;-76
2023/01/10 00:46:44;;;;;;;8.67;3.90;;;4.60;99.90;;;3.45;100.00;97077.78;5052831;28;20440;-76
2023/01/10 00:49:10;;;;;;;7.30;4.00;;;4.60;99.90;;;3.47;100.00;97086.19;5052891;28;20823;-76
2023/01/10 00:51:36;;;;;;;6.40;3.85;;;4.60;99.90;;;3.68;100.00;97095.53;5053056;28;20445;-76
2023/01/10 00:54:03;;;;;;;10.33;4.33;;;4.70;99.90;;;3.51;100.00;97091.81;5051717;28;20484;-75
2023/01/10 00:56:29;;;;;;;7.85;4.07;;;4.70;99.90;;;3.57;100.00;97095.41;5052652;28;20394;-75
2023/01/10 00:58:56;;;;;;;7.15;4.20;;;4.70;99.90;;;3.53;100.00;97091.63;5052645;28;20551;-76
2023/01/10 01:01:22;;;;;;;7.17;4.17;;;4.70;99.90;;;3.45;100.00;97101.34;5052806;28;20401;-75
2023/01/10 01:03:48;;;;;;;9.75;4.70;;;4.60;99.90;;;3.53;100.00;97113.34;5052329;28;20433;-75
2023/01/10 01:06:14;;;;;;;8.25;4.35;;;4.70;99.90;;;3.51;100.00;97110.13;5052464;28;20421;-75
2023/01/10 01:08:39;;;;;;;11.53;5.00;;;4.60;99.90;;;3.44;100.00;97128.50;5052569;28;20409;-75
2023/01/10 01:11:05;;;;;;;12.10;5.20;;;4.60;99.90;;;3.47;100.00;97127.25;5052440;28;20405;-75
2023/01/10 01:13:31;;;;;;;12.50;4.80;;;4.60;99.90;;;3.43;100.00;97134.75;5052250;28;20408;-74
2023/01/10 01:15:59;;;;;;;8.63;4.78;;;4.60;99.90;;;3.39;100.00;97125.69;5052473;28;20401;-75
2023/01/10 01:18:26;;;;;;;9.35;4.75;;;4.60;99.90;;;3.48;100.00;97136.72;5052540;28;20409;-75
2023/01/10 01:20:55;;;;;;;8.48;4.53;;;4.60;99.90;;;3.47;100.00;97148.19;5052670;28;20405;-75
2023/01/10 01:23:22;;;;;;;11.40;4.67;;;4.60;99.90;;;3.49;100.00;97160.06;5052117;28;20452;-74
2023/01/10 01:25:50;;;;;;;9.15;4.38;;;4.60;99.90;;;3.50;100.00;97160.88;5050820;28;20465;-75
2023/01/10 01:28:16;;;;;;;9.00;4.40;;;4.70;99.90;;;3.55;100.00;97176.72;5052138;28;20972;-75
2023/01/10 01:30:42;;;;;;;7.10;4.20;;;4.70;99.90;;;3.53;100.00;97180.59;5052145;28;20500;-75
2023/01/10 01:33:10;;;;;;;7.13;3.72;;;4.70;99.90;;;3.44;100.00;97187.88;5052000;28;20436;-75
2023/01/10 01:35:35;;;;;;;4.37;3.10;;;4.60;99.90;;;3.57;100.00;97194.84;5052051;28;20478;-75
2023/01/10 01:38:02;;;;;;;6.28;3.50;;;4.70;99.90;;;3.47;100.00;97190.88;5052209;28;20685;-74
2023/01/10 01:40:28;;;;;;;6.40;3.20;;;4.60;99.90;;;3.44;100.00;97196.53;5051778;28;20498;-75
2023/01/10 01:42:56;;;;;;;5.25;3.13;;;4.60;99.90;;;3.42;100.00;97205.59;5051800;28;20813;-75
2023/01/10 01:45:37;;;;;;;5.03;2.88;;;4.60;99.90;;;3.39;100.00;97209.41;5051795;28;20573;-74
2023/01/10 01:48:19;;;;;;;4.75;2.63;;;4.60;99.90;;;3.64;100.00;97211.31;5051816;28;20533;-75
2023/01/10 01:50:52;;;;;;;4.35;2.22;;;4.70;99.90;;;3.55;100.00;97217.78;5051944;28;20425;-74
2023/01/10 01:53:25;;;;;;;5.03;2.33;;;4.70;99.90;;;3.45;100.00;97232.16;5051648;28;20442;-74
2023/01/10 01:55:56;;;;;;;3.92;2.50;;;4.60;99.90;;;3.53;100.00;97241.56;5051724;28;20435;-75
2023/01/10 01:58:31;;;;;;;2.50;2.22;;;4.60;99.90;;;3.59;100.00;97232.88;5051712;28;20438;-74
2023/01/10 02:00:57;;;;;;;4.90;2.60;;;4.70;99.90;;;3.46;100.00;97238.16;5051735;28;20512;-75
2023/01/10 02:03:25;;;;;;;6.50;3.03;;;4.60;99.90;;;3.52;100.00;97250.44;5051387;28;20788;-75
2023/01/10 02:05:52;;;;;;;4.50;2.80;;;4.70;99.90;;;3.61;100.00;97236.06;5051186;28;20503;-75
2023/01/10 02:08:18;;;;;;;6.40;3.28;;;4.70;99.90;;;3.54;100.00;97242.34;5051352;28;20405;-74
2023/01/10 02:10:52;;;;;;;4.23;2.80;;;4.70;99.90;;;3.40;100.00;97247.66;5051435;28;20911;-75
2023/01/10 02:13:23;;;;;;;7.72;3.50;;;4.60;99.90;;;3.57;100.00;97274.16;5051138;28;20549;-74
2023/01/10 02:15:49;;;;;;;9.80;3.73;;;4.60;99.90;;;3.41;100.00;97264.97;5051033;28;20484;-73
2023/01/10 02:18:16;;;;;;;7.68;3.92;;;4.60;99.90;;;3.39;100.00;97276.63;5051228;28;20405;-73
2023/01/10 02:21:06;;;;;;;6.72;4.03;;;4.50;99.90;;;3.35;100.00;97281.50;5051169;28;20897;-74
2023/01/10 02:23:59;;;;;;;9.00;4.38;;;4.50;99.90;;;3.31;100.00;97280.28;5050813;28;20485;-73
2023/01/10 02:27:11;;;;;;;7.38;4.10;;;4.50;99.90;;;3.33;100.00;97280.91;5051035;28;20487;-73
2023/01/10 02:30:32;;;;;;;13.02;5.53;;;4.50;99.90;;;3.29;100.00;97289.38;5051100;28;20431;-74
2023/01/10 02:33:10;;;;;;;11.80;5.60;;;4.50;99.90;;;3.43;100.00;97301.41;5050778;28;20491;-73
2023/01/10 02:36:07;;;;;;;9.07;4.90;;;4.60;99.90;;;3.40;100.00;97307.03;5050911;28;20541;-73
2023/01/10 02:38:50;;;;;;;9.98;4.70;;;4.60;99.90;;;3.44;100.00;97319.50;5050702;28;20545;-73
2023/01/10 02:41:26;;;;;;;7.70;4.65;;;4.60;99.90;;;3.36;100.00;97316.31;5050839;28;20449;-74
2023/01/10 02:43:58;;;;;;;8.27;4.63;;;4.50;99.90;;;3.49;100.00;97317.06;5050634;28;20444;-74
2023/01/10 02:46:28;;;;;;;7.07;4.35;;;4.60;99.90;;;3.48;100.00;97327.72;5050633;28;20516;-74
2023/01/10 02:48:55;;;;;;;9.63;4.33;;;4.50;99.90;;;3.38;100.00;97325.53;5050781;28;20401;-74
2023/01/10 02:51:24;;;;;;;10.02;4.60;;;4.60;99.90;;;3.46;100.00;97319.28;5050683;28;20429;-74
2023/01/10 02:53:54;;;;;;;9.63;4.30;;;4.60;99.90;;;3.40;100.00;97320.91;5050492;28;20956;-74
2023/01/10 02:56:55;;;;;;;9.63;4.20;;;4.50;99.90;;;3.30;100.00;97330.22;5050610;28;20525;-74
2023/01/10 03:00:23;;;;;;;7.95;3.92;;;4.40;99.90;;;3.25;100.00;97336.06;5050409;28;20476;-75
2023/01/10 03:03:13;;;;;;;9.52;4.05;;;4.40;99.90;;;3.17;100.00;97332.84;5050321;28;20460;-74
2023/01/10 03:05:58;;;;;;;10.82;4.40;;;4.30;99.90;;;3.16;100.00;97337.28;5050312;28;20408;-74
2023/01/10 03:08:33;;;;;;;8.73;5.10;;;4.30;99.90;;;3.26;100.00;97342.91;5050458;28;20402;-73
2023/01/10 03:11:02;;;;;;;11.93;5.13;;;4.30;99.90;;;3.14;100.00;97357.63;5050566;28;20393;-73
2023/01/10 03:13:36;;;;;;;11.38;5.35;;;4.30;99.90;;;3.22;100.00;97360.03;5050420;28;20397;-73
2023/01/10 03:16:07;;;;;;;11.60;5.77;;;4.40;99.90;;;3.14;100.00;97377.75;5049992;28;20500;-74
2023/01/10 03:18:40;;;;;;;17.70;6.77;;;4.30;99.90;;;3.12;100.00;97380.56;5050559;28;20467;-73
2023/01/10 03:21:10;;;;;;;16.25;6.72;;;4.30;99.90;;;3.15;100.00;97376.75;5050346;28;20531;-74
2023/01/10 03:23:36;;;;;;;19.40;7.10;;;4.30;99.90;;;3.15;100.00;97400.28;5048721;28;20493;-74
2023/01/10 03:26:04;;;;;;;19.42;7.72;;;4.30;99.90;;;3.21;100.00;97408.13;5050163;28;20478;-74
2023/01/10 03:28:34;;;;;;;24.23;7.65;;;4.40;99.90;;;3.20;100.00;97416.97;5050276;28;20848;-74
2023/01/10 03:31:05;;;;;;;31.58;8.18;;;4.40;99.90;;;3.14;100.00;97404.69;5050424;28;20458;-73
2023/01/10 03:33:33;;;;;;;21.65;7.30;;;4.30;99.90;;;3.13;100.00;97407.50;5050051;28;20437;-75
2023/01/10 03:36:20;;;;;;;25.67;7.75;;;4.30;99.90;;;3.13;100.00;97412.75;5048885;28;20408;-74
2023/01/10 03:38:52;;;;;;;17.55;6.93;;;4.30;99.90;;;3.29;100.00;97425.41;5050084;28;20412;-75
2023/01/10 03:41:32;;;;;;;21.80;7.15;;;4.40;99.90;;;3.29;100.00;97431.44;5050259;28;20974;-74
2023/01/10 03:47:00;;;;;;;17.17;7.45;;;4.40;99.90;;;3.13;100.00;97429.25;5050143;28;20481;-74
2023/01/10 03:49:28;;;;;;;25.58;7.57;;;4.30;99.90;;;3.09;100.00;97418.38;5050104;28;20509;-75
2023/01/10 03:51:57;;;;;;;18.83;7.60;;;4.30;99.90;;;3.17;100.00;97438.28;5050023;28;20447;-74
2023/01/10 03:54:23;;;;;;;18.88;7.00;;;4.30;99.90;;;3.15;100.00;97437.69;5049876;28;20492;-75
2023/01/10 03:56:51;;;;;;;17.20;7.30;;;4.30;99.90;;;3.07;100.00;97449.16;5050154;28;20412;-75
2023/01/10 03:59:18;;;;;;;16.27;6.30;;;4.20;99.90;;;3.03;100.00;97447.94;5050067;28;20466;-74
2023/01/10 04:01:44;;;;;;;19.85;6.68;;;4.20;99.90;;;3.09;100.00;97454.16;5050089;28;20827;-75
2023/01/10 04:04:10;;;;;;;17.27;5.90;;;4.20;99.90;;;3.01;100.00;97447.34;5049773;28;20397;-74
2023/01/10 04:06:36;;;;;;;17.67;5.55;;;4.20;99.90;;;3.00;100.00;97452.78;5049856;28;20415;-75
2023/01/10 04:09:03;;;;;;;11.33;5.60;;;4.20;99.90;;;2.99;100.00;97464.25;5050186;28;20443;-75
2023/01/10 04:11:29;;;;;;;17.38;5.70;;;4.20;99.90;;;2.91;100.00;97465.25;5049920;28;20469;-75
2023/01/10 04:13:55;;;;;;;17.75;5.20;;;4.10;99.90;;;2.94;100.00;97472.69;5049762;28;20409;-75
2023/01/10 04:16:21;;;;;;;20.40;5.82;;;4.10;99.90;;;2.97;100.00;97480.13;5048606;28;20449;-75
2023/01/10 04:18:47;;;;;;;15.00;5.47;;;4.10;99.90;;;2.88;100.00;97480.53;5049835;28;20466;-75
2023/01/10 04:21:13;;;;;;;15.88;5.35;;;4.00;99.90;;;2.87;100.00;97490.16;5049809;28;20467;-75
2023/01/10 04:23:39;;;;;;;13.60;5.57;;;4.10;99.90;;;2.86;100.00;97490.34;5049638;28;20446;-75
2023/01/10 04:26:06;;;;;;;22.07;6.10;;;4.00;99.90;;;2.88;100.00;97504.03;5049701;28;20421;-75
2023/01/10 04:28:32;;;;;;;27.58;6.30;;;4.00;99.90;;;2.82;100.00;97499.63;5051475;28;20766;-75
2023/01/10 04:30:58;;;;;;;13.33;5.63;;;4.00;99.90;;;2.89;100.00;97508.28;5052120;28;20420;-75
2023/01/10 04:33:23;;;;;;;17.15;5.82;;;3.90;99.90;;;2.82;100.00;97510.06;5053187;28;20405;-75
2023/01/10 04:35:51;;;;;;;23.20;6.38;;;3.90;99.90;;;2.76;100.00;97509.06;5053096;28;20872;-75
2023/01/10 04:38:17;;;;;;;21.60;7.05;;;3.90;99.90;;;2.65;100.00;97518.28;5052634;28;20765;-75
2023/01/10 04:40:43;;;;;;;23.97;6.47;;;3.80;99.90;;;2.72;100.00;97529.56;5053236;28;20440;-76
2023/01/10 04:43:10;;;;;;;22.05;7.00;;;3.90;99.90;;;2.78;100.00;97535.81;5053057;28;20440;-76
2023/01/10 04:45:37;;;;;;;22.92;6.38;;;3.90;99.90;;;2.67;100.00;97542.41;5052934;28;20409;-75
2023/01/10 04:48:05;;;;;;;24.13;6.30;;;3.80;99.90;;;2.62;100.00;97544.81;5052711;28;20405;-75
2023/01/10 04:50:31;;;;;;;22.70;6.38;;;3.80;99.90;;;2.65;100.00;97549.63;5052962;28;20408;-75
2023/01/10 04:52:56;;;;;;;20.57;6.27;;;3.80;99.90;;;2.54;100.00;97558.06;5049603;28;21050;-76
2023/01/10 04:55:22;;;;;;;27.40;6.85;;;3.70;99.90;;;2.52;100.00;97567.09;5041523;28;20410;-76
2023/01/10 04:57:48;;;;;;;26.30;6.72;;;3.70;99.90;;;2.41;100.00;97571.06;5044151;28;20401;-75
2023/01/10 05:00:17;;;;;;;21.30;6.40;;;3.60;99.90;;;2.50;100.00;97580.34;5052904;28;20842;-74
2023/01/10 05:02:43;;;;;;;21.58;6.75;;;3.60;99.90;;;2.45;100.00;97590.56;5052880;28;20442;-75
2023/01/10 05:05:09;;;;;;;32.38;7.45;;;3.60;99.90;;;2.45;100.00;97590.56;5052610;28;20401;-75
2023/01/10 05:07:36;;;;;;;30.58;7.15;;;3.60;99.90;;;2.45;100.00;97584.53;5052506;28;20413;-73
2023/01/10 05:10:02;;;;;;;34.17;8.02;;;3.60;99.90;;;2.60;100.00;97590.44;5047910;28;20482;-74
2023/01/10 05:12:28;;;;;;;32.08;6.90;;;3.70;99.90;;;2.59;100.00;97588.81;5046513;28;20485;-74
2023/01/10 05:14:54;;;;;;;31.85;7.07;;;3.70;99.90;;;2.62;100.00;97594.47;5042752;28;20462;-74
2023/01/10 05:17:21;;;;;;;29.10;6.97;;;3.80;99.90;;;2.60;100.00;97598.28;5041147;28;20399;-73
2023/01/10 05:19:47;;;;;;;28.08;5.95;;;3.80;99.90;;;2.83;100.00;97598.75;5041914;28;20906;-75
2023/01/10 05:22:14;;;;;;;23.50;6.15;;;3.80;99.90;;;2.82;100.00;97602.38;5042809;28;20413;-75
2023/01/10 05:24:40;;;;;;;34.97;6.65;;;3.90;99.90;;;2.96;100.00;97609.25;5041649;28;20774;-74
2023/01/10 05:27:06;;;;;;;30.95;6.22;;;4.00;99.90;;;2.78;100.00;97611.63;5047827;28;20953;-74
2023/01/10 05:29:33;;;;;;;30.00;6.70;;;4.00;99.90;;;2.72;100.00;97620.22;5047608;28;20508;-74
2023/01/10 05:31:59;;;;;;;24.38;5.78;;;3.90;99.90;;;2.71;100.00;97622.03;5048435;28;20881;-74
2023/01/10 05:34:26;;;;;;;25.15;5.50;;;3.90;99.90;;;2.82;100.00;97630.31;5041186;28;20908;-75
2023/01/10 05:36:52;;;;;;;35.00;6.15;;;3.90;99.90;;;2.73;100.00;97630.50;5041895;28;20531;-74
2023/01/10 05:39:18;;;;;;;24.47;5.80;;;3.90;99.90;;;3.03;100.00;97627.56;5058112;22;20506;-81
2023/01/10 05:41:44;;;;;;;38.58;6.35;;;4.10;99.90;;;2.79;100.00;97638.53;5054214;28;20413;-82
2023/01/10 05:44:10;;;;;;;28.23;5.63;;;4.00;99.90;;;2.92;100.00;97646.47;5063822;28;20416;-78
2023/01/10 05:46:36;;;;;;;32.45;5.93;;;4.00;99.90;;;2.83;100.00;97650.25;5067067;28;20419;-80
2023/01/10 05:49:02;;;;;;;35.42;5.97;;;4.00;99.90;;;2.85;100.00;97653.47;5057441;28;20496;-82
2023/01/10 05:51:29;;;;;;;32.28;5.90;;;4.00;99.90;;;2.90;100.00;97657.09;5053034;28;20397;-81
2023/01/10 05:53:57;;;;;;;33.03;5.40;;;4.00;99.90;;;2.98;100.00;97656.13;5054675;28;20406;-82
2023/01/10 05:56:23;;;;;;;23.77;4.88;;;4.10;99.90;;;2.91;100.00;97653.50;5055790;28;20401;-81
2023/01/10 05:58:49;;;;;;;23.55;5.07;;;4.10;99.90;;;2.96;100.00;97668.56;5049771;28;20768;-82
2023/01/10 06:01:15;;;;;;;26.58;5.28;;;4.10;99.90;;;2.96;100.00;97669.38;5063108;28;20905;-80
2023/01/10 06:03:41;;;;;;;43.17;5.30;;;4.10;99.90;;;2.84;100.00;97672.78;5054258;28;20413;-81
2023/01/10 06:06:07;;;;;;;28.35;5.90;;;4.00;99.90;;;2.71;100.00;97663.84;5051519;28;20440;-77
2023/01/10 06:08:35;;;;;;;29.10;4.88;;;3.90;99.90;;;2.70;100.00;97672.72;5049445;28;20405;-78
2023/01/10 06:11:01;;;;;;;40.83;4.93;;;3.90;99.90;;;2.70;100.00;97671.91;5050616;28;20440;-81
2023/01/10 06:13:27;;;;;;;24.63;4.53;;;3.90;99.90;;;2.99;100.00;97676.03;5050439;28;20774;-81
2023/01/10 06:15:53;;;;;;;26.35;4.53;;;4.00;99.90;;;2.94;100.00;97675.81;5049773;28;20401;-81
2023/01/10 06:18:19;;;;;;;26.63;4.43;;;4.10;99.90;;;2.99;100.00;97676.03;5049924;28;20401;-81
2023/01/10 06:20:45;;;;;;;26.47;5.23;;;4.10;99.90;;;2.86;100.00;97683.81;5053808;28;20408;-80
2023/01/10 06:23:11;;;;;;;20.27;4.45;;;4.00;99.90;;;2.70;100.00;97680.56;5052524;28;20867;-79
2023/01/10 06:25:41;;;;;;;27.27;4.20;;;3.90;99.90;;;2.62;100.00;97680.72;5038292;28;20421;-79
2023/01/10 06:28:08;;;;;;;27.65;4.35;;;3.80;99.90;;;2.59;100.00;97695.97;5032756;28;20410;-79
2023/01/10 06:30:36;;;;;;;24.17;3.95;;;3.80;99.90;;;2.47;100.00;97693.09;5032972;28;20422;-79
2023/01/10 06:33:05;;;;;;;27.90;4.10;;;3.60;99.90;;;2.48;100.00;97697.28;5035262;28;20938;-80
2023/01/10 06:35:32;;;;;;;25.98;4.25;;;3.60;99.90;;;2.56;100.00;97704.16;5039170;28;20482;-79
2023/01/10 06:37:58;;;;;;;28.02;4.70;;;3.70;99.90;;;2.57;100.00;97718.84;5036162;28;20469;-80
2023/01/10 06:40:25;;;;;;;25.98;4.18;;;3.70;99.90;;;2.60;100.00;97732.34;5036640;28;20446;-81
2023/01/10 06:42:52;;;;;;;27.52;4.90;;;3.80;99.90;;;2.45;100.00;97736.88;5028144;28;20504;-77
2023/01/10 06:45:18;;;;;;;22.92;4.50;;;3.60;99.90;;;2.50;100.00;97728.47;5039282;28;20438;-76
2023/01/10 06:47:44;;;;;;;23.92;4.30;;;3.70;99.90;;;2.55;100.00;97744.38;5037084;28;20410;-76
2023/01/10 06:50:12;;;;;;;25.60;4.53;;;3.70;99.90;;;2.72;100.00;97725.59;5028169;28;20431;-77
2023/01/10 06:52:38;;;;;;;19.27;3.97;;;3.80;99.90;;;2.67;100.00;97735.00;5036646;28;20875;-77
2023/01/10 06:55:05;;;;;;;27.80;3.95;;;3.80;99.90;;;2.62;100.00;97737.41;5037140;28;20408;-77
2023/01/10 06:57:34;;;;;;;22.30;4.00;;;3.80;99.90;;;2.62;100.00;97743.44;5040597;28;20764;-76
2023/01/10 07:00:02;;;;;;;20.92;3.70;;;3.80;99.90;;;2.71;100.00;97747.47;5037363;28;21022;-77
2023/01/10 07:02:28;;;;;;;26.52;4.38;;;3.90;99.90;;;2.68;100.00;97763.56;5035861;28;20401;-77
2023/01/10 07:04:53;;;;;;;19.77;3.85;;;3.80;99.90;;;2.81;100.00;97759.41;5038772;28;20483;-77
2023/01/10 07:07:19;;;;;;;23.77;4.17;;;4.00;99.90;;;2.69;100.00;97764.38;5035322;28;20415;-76
2023/01/10 07:09:46;;;;;;;25.30;4.35;;;3.90;99.90;;;2.64;100.00;97764.13;5033681;28;20462;-77
2023/01/10 07:12:12;;;;;;;25.08;4.78;;;3.80;99.90;;;2.59;100.00;97766.50;5030443;28;20434;-77
2023/01/10 07:14:38;;;;;;;32.30;4.15;;;3.80;99.90;;;2.58;100.00;97783.19;5030390;28;20438;-77
2023/01/10 07:17:05;;;;;;;24.30;4.28;;;3.80;99.90;;;2.55;100.00;97787.00;5028009;28;20450;-77
2023/01/10 07:19:31;;;;;;;23.25;4.03;;;3.70;99.90;;;2.58;100.00;97794.44;5030302;28;20827;-77
2023/01/10 07:21:57;;;;;;;23.92;4.10;;;3.70;99.90;;;2.50;100.00;97805.03;5030333;28;20493;-76
2023/01/10 07:24:23;;;;;;;22.92;3.63;;;3.70;99.90;;;2.50;100.00;97807.66;5030345;28;20907;-77
2023/01/10 07:26:48;;;;;;;24.40;4.63;;;3.70;99.90;;;2.42;100.00;97805.19;5030336;28;20775;-77
2023/01/10 07:29:14;;;;;;;34.80;4.50;;;3.60;99.90;;;2.43;100.00;97805.97;5030298;28;20733;-77
2023/01/10 07:31:40;;;;;;;26.92;5.15;;;3.60;99.90;;;2.43;100.00;97792.91;5030330;28;20446;-77
2023/01/10 07:34:07;;;;;;;27.03;4.47;;;3.60;99.90;;;2.34;100.00;97781.78;5028413;28;20473;-76
2023/01/10 07:36:35;;;;;;;29.83;4.07;;;3.60;99.90;;;2.42;100.00;97796.53;5023195;28;20417;-76
2023/01/10 07:39:01;;;;;;;30.00;4.82;;;3.60;99.90;;;2.38;100.00;97795.31;5029446;28;20494;-77
2023/01/10 07:41:27;;;;;;;31.75;4.40;;;3.60;99.90;;;2.36;100.00;97794.69;5028181;28;20415;-75
2023/01/10 07:43:53;;;;;;;26.10;4.80;;;3.50;99.90;;;2.38;100.00;97808.38;5026023;28;20923;-76
2023/01/10 07:46:19;;;;;;;23.58;4.50;;;3.60;99.90;;;2.39;100.00;97818.63;5027034;28;20417;-75
2023/01/10 07:48:45;;;;;;;20.23;4.80;;;3.60;99.90;;;2.41;100.00;97831.47;5031358;28;20426;-75
2023/01/10 07:51:13;;;;;;;30.25;5.10;;;3.60;99.90;;;2.40;100.00;97843.75;5032558;28;20423;-74
2023/01/10 07:53:39;;;;;;;25.95;4.65;;;3.60;99.90;;;2.45;100.00;97856.25;5031474;28;20474;-74
2023/01/10 07:56:06;;;;;;;25.10;4.60;;;3.60;99.90;;;2.42;100.00;97838.31;5028533;28;20411;-75
2023/01/10 07:58:32;;;;;;;33.95;4.68;;;3.60;99.90;;;2.36;100.00;97844.31;5025480;28;20932;-77
2023/01/10 08:00:58;;;;;;;28.20;4.20;;;3.50;99.90;;;2.38;100.00;97861.44;5023959;28;20468;-77
2023/01/10 08:03:25;;;;;;;23.30;4.82;;;3.50;99.90;;;2.44;100.00;97865.09;5032823;28;20460;-75
2023/01/10 08:05:58;;;;;;;26.45;4.07;;;3.60;99.90;;;2.44;100.00;97870.31;5033907;28;20946;-75
2023/01/10 08:08:25;;;;;;;26.67;4.38;;;3.60;99.90;;;2.47;100.00;97870.75;5034653;28;20838;-74
2023/01/10 08:10:51;;;;;;;25.15;4.47;;;3.60;99.90;;;2.48;100.00;97868.94;5034024;28;20479;-76
2023/01/10 08:13:19;;;;;;;22.80;4.45;;;3.70;99.90;;;2.47;100.00;97864.72;5034027;28;20469;-77
2023/01/10 08:15:51;;;;;;;32.42;4.75;;;3.60;99.90;;;2.45;100.00;97861.47;5035251;28;20420;-78
2023/01/10 08:18:19;;;;;;;32.33;4.77;;;3.60;99.90;;;2.56;100.00;97863.56;5034725;28;20427;-80
2023/01/10 08:20:47;;;;;;;22.00;4.32;;;3.70;99.90;;;2.64;100.00;97872.09;5039839;28;20403;-80
2023/01/10 08:23:13;;;;;;;25.85;4.43;;;3.80;99.90;;;2.63;100.00;97885.38;5050875;28;20410;-78
2023/01/10 08:25:41;;;;;;;21.95;3.72;;;3.80;99.90;;;2.66;100.00;97884.97;5041240;28;20449;-78
2023/01/10 08:28:06;;;;;;;21.58;3.90;;;3.80;99.90;;;2.78;100.00;97882.66;5036382;28;20476;-76
2023/01/10 08:30:32;;;;;;;28.05;4.68;;;3.90;99.90;;;2.84;100.00;97892.38;5034495;28;20407;-77
2023/01/10 08:33:01;;;;;;;19.77;3.73;;;4.00;99.90;;;2.84;100.00;97889.75;5026338;28;20786;-75
2023/01/10 08:35:27;;;;;;;24.17;4.35;;;4.00;99.90;;;2.81;100.00;97900.56;5033195;28;20415;-76
2023/01/10 08:37:56;;;;;;;22.13;4.15;;;4.00;99.90;;;2.78;100.00;97909.63;5032938;28;20409;-76
2023/01/10 08:40:22;;;;;;;20.98;4.78;;;3.90;99.90;;;2.84;100.00;97903.63;5032249;28;20566;-76
2023/01/10 08:42:57;;;;;;;21.00;4.22;;;4.00;99.90;;;2.86;100.00;97904.22;5032590;28;20407;-75
2023/01/10 08:45:23;;;;;;;20.45;4.32;;;4.00;99.90;;;2.84;100.00;97906.25;5032717;28;20476;-76
2023/01/10 08:47:48;;;;;;;18.38;4.10;;;4.00;99.90;;;2.86;100.00;97912.06;5032877;28;20891;-77
2023/01/10 08:50:15;;;;;;;21.48;4.10;;;4.00;99.90;;;2.90;100.00;97907.28;5032964;28;20415;-75
2023/01/10 08:52:41;;;;;;;26.02;4.45;;;4.10;99.90;;;2.92;100.00;97911.34;5032894;28;20505;-77
2023/01/10 08:55:08;;;;;;;19.83;3.88;;;4.10;99.90;;;2.96;100.00;97907.34;5043378;28;20453;-78
2023/01/10 08:57:34;;;;;;;21.42;4.00;;;4.10;99.90;;;2.92;100.00;97923.59;5041585;28;20413;-78
2023/01/10 09:00:02;;;;;;;27.00;4.15;;;4.10;99.90;;;2.88;100.00;97923.16;5033296;28;20407;-77
2023/01/10 09:02:28;;;;;;;23.45;3.90;;;4.00;99.90;;;2.87;100.00;97924.16;5051031;28;20410;-77
2023/01/10 09:04:54;;;;;;;24.13;3.80;;;4.00;99.90;;;2.92;100.00;97926.22;5048350;28;20434;-78
2023/01/10 09:07:19;;;;;;;23.30;4.07;;;4.10;99.90;;;2.96;100.00;97930.06;5035200;28;20413;-79
2023/01/10 09:09:45;;;;;;;23.70;4.30;;;4.10;99.90;;;2.92;100.00;97924.41;5038140;28;20944;-76
2023/01/10 09:14:56;;;;;;;24.40;3.65;;;4.10;99.90;;;3.00;100.00;97939.16;5031674;28;20430;-77
2023/01/10 09:17:23;;;;;;;14.80;3.90;;;4.10;99.90;;;2.98;100.00;97941.97;5032544;28;20485;-78
2023/01/10 09:19:49;;;;;;;10.30;3.23;;;4.20;99.90;;;3.09;100.00;97946.66;5032305;28;20409;-78
2023/01/10 09:22:15;;;;;;;16.08;3.00;;;4.20;99.90;;;3.25;100.00;97945.56;5032399;28;20399;-77
2023/01/10 09:24:42;;;;;;;13.13;3.13;;;4.40;99.90;;;3.35;100.00;97953.91;5032180;28;20411;-77
2023/01/10 09:27:09;;;;;;;14.88;3.50;;;4.50;99.90;;;3.46;100.00;97958.59;5028029;28;20451;-76
2023/01/10 09:29:34;;;;;;;18.02;3.78;;;4.60;99.90;;;3.48;100.00;97961.00;5034093;28;20415;-78
2023/01/10 09:32:00;;;;;;;14.25;2.90;;;4.70;99.90;;;3.56;100.00;97960.06;5036836;28;20427;-76
2023/01/10 09:34:28;;;;;;;16.90;3.40;;;4.70;99.90;;;3.61;100.00;97966.31;5040203;28;20408;-75
2023/01/10 09:36:53;;;;;;;25.17;3.75;;;4.70;99.90;;;3.60;100.00;97966.53;5039523;28;20411;-77
2023/01/10 09:39:20;;;;;;;15.70;3.53;;;4.70;99.90;;;3.67;100.00;97970.00;5040698;28;20411;-76
2023/01/10 09:42:04;;;;;;;21.30;4.47;;;4.80;99.90;;;3.67;100.00;97968.19;5042185;28;20767;-76
2023/01/10 09:44:44;;;;;;;17.35;3.40;;;4.80;99.90;;;3.77;100.00;97976.50;5040524;28;20950;-77
2023/01/10 09:47:20;;;;;;;19.65;4.57;;;4.90;99.90;;;3.71;100.00;97977.28;5040370;28;20522;-76
2023/01/10 09:50:03;;;;;;;21.25;4.70;;;4.80;99.90;;;3.71;100.00;97990.38;5039584;28;20414;-77
2023/01/10 09:52:32;;;;;;;24.60;4.75;;;4.80;99.90;;;3.67;100.00;97996.19;5039210;28;20794;-76
2023/01/10 09:55:13;;;;;;;21.05;4.13;;;4.80;99.90;;;3.62;100.00;98001.97;5042724;28;20500;-76
2023/01/10 09:57:39;;;;;;;22.33;5.50;;;4.70;99.90;;;3.75;100.00;98006.50;5042288;28;20435;-76
2023/01/10 10:00:08;;;;;;;17.70;4.43;;;4.80;99.90;;;3.90;100.00;98012.44;5041017;28;20411;-77
2023/01/10 10:02:39;;;;;;;21.35;3.78;;;5.00;99.90;;;3.88;100.00;98001.34;5039198;28;20413;-77
2023/01/10 10:05:19;;;;;;;28.27;5.00;;;5.00;99.90;;;3.80;100.00;98001.50;5041994;28;20484;-80
2023/01/10 10:07:50;;;;;;;16.85;4.28;;;4.90;99.90;;;3.72;100.00;98004.25;5040191;28;20479;-77
2023/01/10 10:10:22;;;;;;;20.52;4.07;;;4.90;99.90;;;3.69;100.00;98004.63;5047935;28;20461;-82
2023/01/10 10:13:01;;;;;;;19.92;4.35;;;4.80;99.90;;;3.90;100.00;98001.97;5043933;28;20458;-79
2023/01/10 10:15:38;;;;;;;21.75;4.93;;;5.00;99.90;;;4.39;100.00;97987.84;5044194;28;20877;-78
2023/01/10 10:18:17;;;;;;;17.02;3.90;;;5.50;99.90;;;5.07;100.00;97979.72;5043956;28;20478;-78
2023/01/10 10:21:00;;;;;;;14.90;3.35;;;6.10;99.90;;;5.19;100.00;97966.78;5093618;22;20469;-80
2023/01/10 10:23:47;;;;;;;14.07;3.03;;;6.40;99.90;;;5.41;100.00;97976.06;5193184;22;20424;-80
2023/01/10 10:26:24;;;;;;;11.80;3.40;;;6.40;99.90;;;5.09;100.00;97986.59;5065083;28;20450;-77
2023/01/10 10:29:46;;;;;;;14.80;4.10;;;6.10;99.90;;;4.98;100.00;97978.28;5067821;28;20811;-81
2023/01/10 10:34:48;;;;;;;26.40;4.27;;;5.90;99.90;;;4.82;100.00;97988.34;5209746;22;20453;-82
2023/01/10 10:37:22;;;;;;;14.40;3.00;;;6.00;99.90;;;4.90;100.00;97994.22;5026608;28;20442;-78
2023/01/10 10:39:54;;;;;;;14.02;3.50;;;5.90;99.90;;;4.70;100.00;97996.00;5040552;28;20507;-82
2023/01/10 10:42:20;;;;;;;10.18;3.30;;;5.80;99.90;;;4.72;100.00;97985.31;5041563;28;20950;-81
2023/01/10 10:44:52;;;;;;;9.75;3.10;;;5.80;99.90;;;4.77;100.00;97978.47;5040904;28;20411;-80